sensor_id;sensor_type;location;lat;lon;timestamp;pressure;altitude;pressure_sealevel;temperature;humidity
63035;BME280;59750;53.356;-1.458;2022-09-09T10:22:51;99563.91;;;21.43;84.34
63035;BME280;59750;53.356;-1.458;2022-09-09T10:28:40;99557.34;;;21.52;85.26
63035;BME280;59750;53.356;-1.458;2022-09-09T10:31:22;99555.75;;;22.24;84.69
63035;BME280;59750;53.356;-1.458;2022-09-09T10:36:26;99548.38;;;23.35;79.37
63035;BME280;59750;53.356;-1.458;2022-09-09T10:39:03;99551.97;;;23.61;70.90
63035;BME280;59750;53.356;-1.458;2022-09-09T10:50:18;99552.94;;;24.78;71.62
63035;BME280;59750;53.356;-1.458;2022-09-09T10:55:56;99555.13;;;25.06;70.44
63035;BME280;59750;53.356;-1.458;2022-09-09T10:58:35;99551.84;;;25.34;67.80
63035;BME280;59750;53.356;-1.458;2022-09-09T11:01:23;99551.81;;;25.52;71.07
63035;BME280;59750;53.356;-1.458;2022-09-09T11:04:02;99548.03;;;25.95;66.42
63035;BME280;59750;53.356;-1.458;2022-09-09T11:06:39;99546.66;;;26.04;66.07
63035;BME280;59750;53.356;-1.458;2022-09-09T11:09:15;99546.91;;;25.61;65.98
63035;BME280;59750;53.356;-1.458;2022-09-09T11:12:02;99548.94;;;24.69;70.34
63035;BME280;59750;53.356;-1.458;2022-09-09T11:14:39;99544.41;;;23.06;72.63
63035;BME280;59750;53.356;-1.458;2022-09-09T11:17:14;99550.56;;;22.36;75.02
63035;BME280;59750;53.356;-1.458;2022-09-09T11:19:44;99548.09;;;22.47;77.16
63035;BME280;59750;53.356;-1.458;2022-09-09T11:25:21;99553.50;;;22.99;77.26
63035;BME280;59750;53.356;-1.458;2022-09-09T11:28:04;99557.97;;;22.54;74.51
63035;BME280;59750;53.356;-1.458;2022-09-09T11:37:07;99550.56;;;21.83;73.56
63035;BME280;59750;53.356;-1.458;2022-09-09T11:39:41;99556.59;;;22.05;78.29
63035;BME280;59750;53.356;-1.458;2022-09-09T11:44:41;99556.66;;;22.69;79.67
63035;BME280;59750;53.356;-1.458;2022-09-09T11:47:24;99549.91;;;22.60;72.45
63035;BME280;59750;53.356;-1.458;2022-09-09T11:52:44;99572.78;;;21.57;78.03
63035;BME280;59750;53.356;-1.458;2022-09-09T11:55:31;99586.81;;;21.85;79.41
63035;BME280;59750;53.356;-1.458;2022-09-09T11:58:04;99582.50;;;21.65;72.86
63035;BME280;59750;53.356;-1.458;2022-09-09T12:00:39;99584.72;;;21.54;80.46
63035;BME280;59750;53.356;-1.458;2022-09-09T12:06:24;99590.41;;;20.49;84.72
63035;BME280;59750;53.356;-1.458;2022-09-09T12:08:55;99595.44;;;20.37;87.00
63035;BME280;59750;53.356;-1.458;2022-09-09T12:11:28;99589.13;;;20.17;89.49
63035;BME280;59750;53.356;-1.458;2022-09-09T12:13:57;99587.22;;;20.11;90.42
63035;BME280;59750;53.356;-1.458;2022-09-09T12:16:34;99591.31;;;19.86;92.53
63035;BME280;59750;53.356;-1.458;2022-09-09T12:24:37;99580.41;;;19.59;95.07
63035;BME280;59750;53.356;-1.458;2022-09-09T12:27:14;99581.41;;;19.58;93.39
63035;BME280;59750;53.356;-1.458;2022-09-09T12:29:49;99582.16;;;19.52;95.12
63035;BME280;59750;53.356;-1.458;2022-09-09T12:32:24;99578.44;;;19.32;95.98
63035;BME280;59750;53.356;-1.458;2022-09-09T12:35:15;99578.31;;;19.40;95.73
63035;BME280;59750;53.356;-1.458;2022-09-09T12:37:54;99578.31;;;19.40;92.61
63035;BME280;59750;53.356;-1.458;2022-09-09T12:40:27;99587.03;;;19.49;93.73
63035;BME280;59750;53.356;-1.458;2022-09-09T12:42:55;99589.06;;;19.47;88.03
63035;BME280;59750;53.356;-1.458;2022-09-09T12:45:24;99593.31;;;19.77;91.84
63035;BME280;59750;53.356;-1.458;2022-09-09T12:48:01;99590.81;;;19.97;86.64
63035;BME280;59750;53.356;-1.458;2022-09-09T12:50:38;99606.19;;;19.95;89.00
63035;BME280;59750;53.356;-1.458;2022-09-09T12:53:31;99612.25;;;19.82;91.46
63035;BME280;59750;53.356;-1.458;2022-09-09T12:56:05;99607.19;;;19.51;92.94
63035;BME280;59750;53.356;-1.458;2022-09-09T12:58:36;99617.34;;;19.26;96.01
63035;BME280;59750;53.356;-1.458;2022-09-09T13:01:05;99622.16;;;18.87;99.49
63035;BME280;59750;53.356;-1.458;2022-09-09T13:03:41;99634.34;;;18.51;100.00
63035;BME280;59750;53.356;-1.458;2022-09-09T13:06:13;99638.16;;;18.34;100.00
63035;BME280;59750;53.356;-1.458;2022-09-09T13:08:40;99626.84;;;18.17;100.00
63035;BME280;59750;53.356;-1.458;2022-09-09T13:11:12;99633.13;;;18.02;100.00
63035;BME280;59750;53.356;-1.458;2022-09-09T13:13:41;99636.50;;;17.96;100.00
63035;BME280;59750;53.356;-1.458;2022-09-09T13:16:34;99641.19;;;17.94;100.00
63035;BME280;59750;53.356;-1.458;2022-09-09T13:19:07;99653.84;;;17.91;100.00
63035;BME280;59750;53.356;-1.458;2022-09-09T13:21:37;99656.56;;;17.83;100.00
63035;BME280;59750;53.356;-1.458;2022-09-09T13:24:07;99653.25;;;17.81;100.00
63035;BME280;59750;53.356;-1.458;2022-09-09T13:26:57;99646.59;;;17.77;100.00
63035;BME280;59750;53.356;-1.458;2022-09-09T13:29:26;99650.28;;;17.76;100.00
63035;BME280;59750;53.356;-1.458;2022-09-09T13:31:53;99654.66;;;17.69;100.00
63035;BME280;59750;53.356;-1.458;2022-09-09T13:34:28;99651.34;;;17.67;100.00
63035;BME280;59750;53.356;-1.458;2022-09-09T13:37:02;99648.72;;;17.59;100.00
63035;BME280;59750;53.356;-1.458;2022-09-09T13:39:35;99657.22;;;17.54;100.00
63035;BME280;59750;53.356;-1.458;2022-09-09T13:42:04;99657.06;;;17.48;100.00
63035;BME280;59750;53.356;-1.458;2022-09-09T13:44:36;99655.28;;;17.40;100.00
63035;BME280;59750;53.356;-1.458;2022-09-09T13:47:15;99662.13;;;17.35;100.00
63035;BME280;59750;53.356;-1.458;2022-09-09T13:49:46;99664.97;;;17.33;100.00
63035;BME280;59750;53.356;-1.458;2022-09-09T13:52:14;99660.66;;;17.24;100.00
63035;BME280;59750;53.356;-1.458;2022-09-09T13:54:48;99666.31;;;17.21;100.00
63035;BME280;59750;53.356;-1.458;2022-09-09T13:57:19;99664.84;;;17.18;100.00
63035;BME280;59750;53.356;-1.458;2022-09-09T13:59:47;99668.31;;;17.19;100.00
63035;BME280;59750;53.356;-1.458;2022-09-09T14:02:15;99672.81;;;17.18;100.00
63035;BME280;59750;53.356;-1.458;2022-09-09T14:04:43;99659.34;;;17.20;100.00
63035;BME280;59750;53.356;-1.458;2022-09-09T14:07:13;99659.84;;;17.23;100.00
63035;BME280;59750;53.356;-1.458;2022-09-09T14:09:41;99661.66;;;17.31;100.00
63035;BME280;59750;53.356;-1.458;2022-09-09T14:12:14;99673.41;;;17.37;100.00
63035;BME280;59750;53.356;-1.458;2022-09-09T14:14:42;99674.88;;;17.39;100.00
63035;BME280;59750;53.356;-1.458;2022-09-09T14:17:10;99675.38;;;17.43;100.00
63035;BME280;59750;53.356;-1.458;2022-09-09T14:19:37;99680.34;;;17.46;100.00
63035;BME280;59750;53.356;-1.458;2022-09-09T14:22:04;99680.00;;;17.49;100.00
63035;BME280;59750;53.356;-1.458;2022-09-09T14:24:31;99684.31;;;17.50;100.00
63035;BME280;59750;53.356;-1.458;2022-09-09T14:26:57;99689.44;;;17.51;100.00
63035;BME280;59750;53.356;-1.458;2022-09-09T14:29:24;99704.56;;;17.51;100.00
63035;BME280;59750;53.356;-1.458;2022-09-09T14:31:52;99694.47;;;17.46;100.00
63035;BME280;59750;53.356;-1.458;2022-09-09T14:34:19;99701.34;;;17.24;100.00
63035;BME280;59750;53.356;-1.458;2022-09-09T14:36:45;99699.88;;;17.22;100.00
63035;BME280;59750;53.356;-1.458;2022-09-09T14:39:13;99700.56;;;17.16;100.00
63035;BME280;59750;53.356;-1.458;2022-09-09T14:41:40;99707.44;;;17.02;100.00
63035;BME280;59750;53.356;-1.458;2022-09-09T14:44:08;99707.13;;;16.89;100.00
63035;BME280;59750;53.356;-1.458;2022-09-09T14:46:38;99705.81;;;16.60;100.00
63035;BME280;59750;53.356;-1.458;2022-09-09T14:49:04;99707.13;;;16.64;100.00
63035;BME280;59750;53.356;-1.458;2022-09-09T14:51:31;99698.84;;;16.59;100.00
63035;BME280;59750;53.356;-1.458;2022-09-09T14:53:58;99697.69;;;16.54;100.00
63035;BME280;59750;53.356;-1.458;2022-09-09T14:56:29;99696.03;;;16.53;100.00
63035;BME280;59750;53.356;-1.458;2022-09-09T14:58:57;99695.03;;;16.54;100.00
63035;BME280;59750;53.356;-1.458;2022-09-09T15:01:25;99689.56;;;16.47;100.00
63035;BME280;59750;53.356;-1.458;2022-09-09T15:03:57;99695.88;;;16.54;100.00
63035;BME280;59750;53.356;-1.458;2022-09-09T15:06:26;99694.53;;;16.58;100.00
63035;BME280;59750;53.356;-1.458;2022-09-09T15:08:53;99694.53;;;16.66;100.00
63035;BME280;59750;53.356;-1.458;2022-09-09T15:11:20;99691.53;;;16.69;100.00
63035;BME280;59750;53.356;-1.458;2022-09-09T15:13:51;99687.56;;;16.82;100.00
63035;BME280;59750;53.356;-1.458;2022-09-09T15:16:22;99692.97;;;16.96;100.00
63035;BME280;59750;53.356;-1.458;2022-09-09T15:18:52;99688.16;;;17.08;100.00
63035;BME280;59750;53.356;-1.458;2022-09-09T15:21:23;99687.09;;;17.17;100.00
63035;BME280;59750;53.356;-1.458;2022-09-09T15:23:50;99684.59;;;17.24;100.00
63035;BME280;59750;53.356;-1.458;2022-09-09T15:26:18;99690.53;;;17.34;100.00
63035;BME280;59750;53.356;-1.458;2022-09-09T15:28:45;99687.19;;;17.40;100.00
63035;BME280;59750;53.356;-1.458;2022-09-09T15:34:03;99690.94;;;17.54;100.00
63035;BME280;59750;53.356;-1.458;2022-09-09T15:39:18;99703.25;;;17.55;100.00
63035;BME280;59750;53.356;-1.458;2022-09-09T15:41:46;99718.22;;;17.48;100.00
63035;BME280;59750;53.356;-1.458;2022-09-09T15:44:14;99716.72;;;17.45;100.00
63035;BME280;59750;53.356;-1.458;2022-09-09T15:51:43;99731.59;;;17.32;100.00
63035;BME280;59750;53.356;-1.458;2022-09-09T15:54:14;99734.75;;;17.27;100.00
63035;BME280;59750;53.356;-1.458;2022-09-09T15:56:45;99732.59;;;17.22;100.00
63035;BME280;59750;53.356;-1.458;2022-09-09T15:59:12;99734.28;;;17.15;100.00
63035;BME280;59750;53.356;-1.458;2022-09-09T16:01:40;99739.28;;;17.10;100.00
63035;BME280;59750;53.356;-1.458;2022-09-09T16:04:08;99739.63;;;17.07;100.00
63035;BME280;59750;53.356;-1.458;2022-09-09T16:06:34;99743.28;;;16.98;100.00
63035;BME280;59750;53.356;-1.458;2022-09-09T16:09:03;99735.81;;;16.93;100.00
63035;BME280;59750;53.356;-1.458;2022-09-09T16:11:33;99743.34;;;16.82;100.00
63035;BME280;59750;53.356;-1.458;2022-09-09T16:14:01;99736.38;;;16.73;100.00
63035;BME280;59750;53.356;-1.458;2022-09-09T16:16:30;99734.69;;;16.47;100.00
63035;BME280;59750;53.356;-1.458;2022-09-09T16:19:01;99727.06;;;16.28;100.00
63035;BME280;59750;53.356;-1.458;2022-09-09T16:21:32;99732.84;;;16.31;100.00
63035;BME280;59750;53.356;-1.458;2022-09-09T16:24:00;99735.84;;;16.36;100.00
63035;BME280;59750;53.356;-1.458;2022-09-09T16:26:31;99738.00;;;16.41;100.00
63035;BME280;59750;53.356;-1.458;2022-09-09T16:28:59;99745.97;;;16.41;100.00
63035;BME280;59750;53.356;-1.458;2022-09-09T16:31:27;99749.28;;;16.43;100.00
63035;BME280;59750;53.356;-1.458;2022-09-09T16:33:55;99749.28;;;16.35;100.00
63035;BME280;59750;53.356;-1.458;2022-09-09T16:36:24;99748.78;;;16.31;100.00
63035;BME280;59750;53.356;-1.458;2022-09-09T16:38:57;99754.44;;;16.28;100.00
63035;BME280;59750;53.356;-1.458;2022-09-09T16:41:24;99751.78;;;16.28;100.00
63035;BME280;59750;53.356;-1.458;2022-09-09T16:43:56;99756.09;;;16.29;100.00
63035;BME280;59750;53.356;-1.458;2022-09-09T16:46:23;99760.22;;;16.32;100.00
63035;BME280;59750;53.356;-1.458;2022-09-09T16:48:50;99762.56;;;16.35;100.00
63035;BME280;59750;53.356;-1.458;2022-09-09T16:51:20;99769.03;;;16.32;100.00
63035;BME280;59750;53.356;-1.458;2022-09-09T16:53:48;99767.19;;;16.33;100.00
63035;BME280;59750;53.356;-1.458;2022-09-09T16:56:19;99766.38;;;16.32;100.00
63035;BME280;59750;53.356;-1.458;2022-09-09T16:58:51;99771.34;;;16.35;100.00
63035;BME280;59750;53.356;-1.458;2022-09-09T17:01:18;99771.19;;;16.37;100.00
63035;BME280;59750;53.356;-1.458;2022-09-09T17:03:45;99766.19;;;16.42;100.00
63035;BME280;59750;53.356;-1.458;2022-09-09T17:06:13;99779.16;;;16.45;100.00
63035;BME280;59750;53.356;-1.458;2022-09-09T17:08:41;99779.84;;;16.47;100.00
63035;BME280;59750;53.356;-1.458;2022-09-09T17:11:15;99778.66;;;16.50;100.00
63035;BME280;59750;53.356;-1.458;2022-09-09T17:13:44;99774.19;;;16.50;100.00
63035;BME280;59750;53.356;-1.458;2022-09-09T17:16:12;99781.16;;;16.51;100.00
63035;BME280;59750;53.356;-1.458;2022-09-09T17:18:39;99784.81;;;16.50;100.00
63035;BME280;59750;53.356;-1.458;2022-09-09T17:21:09;99790.28;;;16.49;100.00
63035;BME280;59750;53.356;-1.458;2022-09-09T17:23:36;99792.28;;;16.47;100.00
63035;BME280;59750;53.356;-1.458;2022-09-09T17:26:06;99790.25;;;16.41;100.00
63035;BME280;59750;53.356;-1.458;2022-09-09T17:28:34;99794.41;;;16.35;100.00
63035;BME280;59750;53.356;-1.458;2022-09-09T17:31:02;99795.41;;;16.34;100.00
63035;BME280;59750;53.356;-1.458;2022-09-09T17:33:31;99808.84;;;16.32;100.00
63035;BME280;59750;53.356;-1.458;2022-09-09T17:36:01;99805.69;;;16.29;100.00
63035;BME280;59750;53.356;-1.458;2022-09-09T17:38:28;99809.66;;;16.25;100.00
63035;BME280;59750;53.356;-1.458;2022-09-09T17:41:05;99817.94;;;16.22;100.00
63035;BME280;59750;53.356;-1.458;2022-09-09T17:43:33;99817.44;;;16.18;100.00
63035;BME280;59750;53.356;-1.458;2022-09-09T17:46:06;99824.38;;;16.11;100.00
63035;BME280;59750;53.356;-1.458;2022-09-09T17:48:34;99823.38;;;16.12;100.00
63035;BME280;59750;53.356;-1.458;2022-09-09T17:51:05;99825.69;;;16.07;100.00
63035;BME280;59750;53.356;-1.458;2022-09-09T17:53:38;99823.53;;;16.02;100.00
63035;BME280;59750;53.356;-1.458;2022-09-09T17:56:07;99825.84;;;15.97;100.00
63035;BME280;59750;53.356;-1.458;2022-09-09T17:58:34;99837.59;;;15.95;100.00
63035;BME280;59750;53.356;-1.458;2022-09-09T18:01:09;99836.03;;;15.84;100.00
63035;BME280;59750;53.356;-1.458;2022-09-09T18:03:40;99851.78;;;15.77;100.00
63035;BME280;59750;53.356;-1.458;2022-09-09T18:06:11;99849.09;;;15.69;100.00
63035;BME280;59750;53.356;-1.458;2022-09-09T18:08:39;99852.53;;;15.62;100.00
63035;BME280;59750;53.356;-1.458;2022-09-09T18:11:06;99850.78;;;15.53;100.00
63035;BME280;59750;53.356;-1.458;2022-09-09T18:13:33;99851.44;;;15.55;100.00
63035;BME280;59750;53.356;-1.458;2022-09-09T18:16:06;99857.38;;;15.49;100.00
63035;BME280;59750;53.356;-1.458;2022-09-09T18:18:33;99859.88;;;15.50;100.00
63035;BME280;59750;53.356;-1.458;2022-09-09T18:21:03;99865.50;;;15.47;100.00
63035;BME280;59750;53.356;-1.458;2022-09-09T18:23:40;99857.34;;;15.40;100.00
63035;BME280;59750;53.356;-1.458;2022-09-09T18:26:11;99866.59;;;15.36;100.00
63035;BME280;59750;53.356;-1.458;2022-09-09T18:28:39;99876.38;;;15.36;100.00
63035;BME280;59750;53.356;-1.458;2022-09-09T18:31:10;99869.84;;;15.30;100.00
63035;BME280;59750;53.356;-1.458;2022-09-09T18:33:38;99879.47;;;15.31;100.00
63035;BME280;59750;53.356;-1.458;2022-09-09T18:36:12;99872.13;;;15.25;100.00
63035;BME280;59750;53.356;-1.458;2022-09-09T18:38:40;99888.03;;;15.25;100.00
63035;BME280;59750;53.356;-1.458;2022-09-09T18:41:26;99881.22;;;15.23;100.00
63035;BME280;59750;53.356;-1.458;2022-09-09T18:43:57;99891.16;;;15.21;100.00
63035;BME280;59750;53.356;-1.458;2022-09-09T18:46:25;99885.56;;;15.06;100.00
63035;BME280;59750;53.356;-1.458;2022-09-09T18:48:51;99904.50;;;15.11;100.00
63035;BME280;59750;53.356;-1.458;2022-09-09T18:51:22;99904.88;;;15.16;100.00
63035;BME280;59750;53.356;-1.458;2022-09-09T18:53:53;99911.16;;;15.15;100.00
63035;BME280;59750;53.356;-1.458;2022-09-09T18:56:20;99914.47;;;15.17;100.00
63035;BME280;59750;53.356;-1.458;2022-09-09T18:58:52;99910.78;;;15.10;100.00
63035;BME280;59750;53.356;-1.458;2022-09-09T19:01:22;99911.53;;;15.02;100.00
63035;BME280;59750;53.356;-1.458;2022-09-09T19:03:49;99916.97;;;15.01;100.00
63035;BME280;59750;53.356;-1.458;2022-09-09T19:06:18;99923.25;;;15.00;100.00
63035;BME280;59750;53.356;-1.458;2022-09-09T19:08:46;99935.28;;;14.94;100.00
63035;BME280;59750;53.356;-1.458;2022-09-09T19:11:16;99927.66;;;14.91;100.00
63035;BME280;59750;53.356;-1.458;2022-09-09T19:13:52;99935.16;;;14.96;100.00
63035;BME280;59750;53.356;-1.458;2022-09-09T19:16:20;99923.72;;;14.95;100.00
63035;BME280;59750;53.356;-1.458;2022-09-09T19:18:49;99927.19;;;14.96;100.00
63035;BME280;59750;53.356;-1.458;2022-09-09T19:21:21;99942.41;;;14.94;100.00
63035;BME280;59750;53.356;-1.458;2022-09-09T19:24:18;99934.94;;;14.89;100.00
63035;BME280;59750;53.356;-1.458;2022-09-09T19:26:47;99956.63;;;14.93;100.00
63035;BME280;59750;53.356;-1.458;2022-09-09T19:29:18;99953.63;;;14.88;100.00
63035;BME280;59750;53.356;-1.458;2022-09-09T19:31:45;99946.97;;;14.83;100.00
63035;BME280;59750;53.356;-1.458;2022-09-09T19:34:13;99954.22;;;14.81;100.00
63035;BME280;59750;53.356;-1.458;2022-09-09T19:36:41;99947.94;;;14.82;100.00
63035;BME280;59750;53.356;-1.458;2022-09-09T19:39:10;99953.09;;;14.84;100.00
63035;BME280;59750;53.356;-1.458;2022-09-09T19:41:36;99959.22;;;14.84;100.00
63035;BME280;59750;53.356;-1.458;2022-09-09T19:44:06;99960.19;;;14.83;100.00
63035;BME280;59750;53.356;-1.458;2022-09-09T19:46:35;99963.16;;;14.80;100.00
63035;BME280;59750;53.356;-1.458;2022-09-09T19:49:04;99966.06;;;14.77;100.00
63035;BME280;59750;53.356;-1.458;2022-09-09T19:51:33;99969.28;;;14.81;100.00
63035;BME280;59750;53.356;-1.458;2022-09-09T19:54:04;99970.69;;;14.75;100.00
63035;BME280;59750;53.356;-1.458;2022-09-09T19:56:32;99973.75;;;14.80;100.00
63035;BME280;59750;53.356;-1.458;2022-09-09T19:59:00;99969.00;;;14.74;100.00
63035;BME280;59750;53.356;-1.458;2022-09-09T20:01:29;99975.44;;;14.72;100.00
63035;BME280;59750;53.356;-1.458;2022-09-09T20:03:59;99979.69;;;14.65;100.00
63035;BME280;59750;53.356;-1.458;2022-09-09T20:06:30;99980.38;;;14.67;100.00
63035;BME280;59750;53.356;-1.458;2022-09-09T20:08:58;99989.44;;;14.64;100.00
63035;BME280;59750;53.356;-1.458;2022-09-09T20:11:26;99984.13;;;14.64;100.00
63035;BME280;59750;53.356;-1.458;2022-09-09T20:13:53;99987.78;;;14.63;100.00
63035;BME280;59750;53.356;-1.458;2022-09-09T20:16:24;99988.06;;;14.60;100.00
63035;BME280;59750;53.356;-1.458;2022-09-09T20:18:53;99992.22;;;14.63;100.00
63035;BME280;59750;53.356;-1.458;2022-09-09T20:21:27;100003.81;;;14.62;100.00
63035;BME280;59750;53.356;-1.458;2022-09-09T20:23:58;99998.34;;;14.63;100.00
63035;BME280;59750;53.356;-1.458;2022-09-09T20:26:26;99996.84;;;14.61;100.00
63035;BME280;59750;53.356;-1.458;2022-09-09T20:28:55;99995.56;;;14.65;100.00
63035;BME280;59750;53.356;-1.458;2022-09-09T20:31:24;100000.41;;;14.69;100.00
63035;BME280;59750;53.356;-1.458;2022-09-09T20:33:52;100003.88;;;14.70;100.00
63035;BME280;59750;53.356;-1.458;2022-09-09T20:38:55;100004.25;;;14.57;100.00
63035;BME280;59750;53.356;-1.458;2022-09-09T20:41:25;100012.56;;;14.62;100.00
63035;BME280;59750;53.356;-1.458;2022-09-09T20:43:54;100014.53;;;14.60;100.00
63035;BME280;59750;53.356;-1.458;2022-09-09T20:46:26;100009.53;;;14.57;100.00
63035;BME280;59750;53.356;-1.458;2022-09-09T20:48:53;100017.78;;;14.54;100.00
63035;BME280;59750;53.356;-1.458;2022-09-09T20:51:22;100021.13;;;14.56;100.00
63035;BME280;59750;53.356;-1.458;2022-09-09T20:54:00;100020.56;;;14.52;100.00
63035;BME280;59750;53.356;-1.458;2022-09-09T20:56:35;100032.69;;;14.55;100.00
63035;BME280;59750;53.356;-1.458;2022-09-09T20:59:12;100029.34;;;14.53;100.00
63035;BME280;59750;53.356;-1.458;2022-09-09T21:01:40;100033.25;;;14.49;100.00
63035;BME280;59750;53.356;-1.458;2022-09-09T21:04:07;100032.25;;;14.50;100.00
63035;BME280;59750;53.356;-1.458;2022-09-09T21:06:35;100038.53;;;14.49;100.00
63035;BME280;59750;53.356;-1.458;2022-09-09T21:09:02;100037.56;;;14.50;100.00
63035;BME280;59750;53.356;-1.458;2022-09-09T21:11:28;100032.44;;;14.39;100.00
63035;BME280;59750;53.356;-1.458;2022-09-09T21:13:54;100042.47;;;14.45;100.00
63035;BME280;59750;53.356;-1.458;2022-09-09T21:16:21;100042.47;;;14.45;100.00
63035;BME280;59750;53.356;-1.458;2022-09-09T21:18:48;100046.09;;;14.44;100.00
63035;BME280;59750;53.356;-1.458;2022-09-09T21:21:15;100047.06;;;14.43;100.00
63035;BME280;59750;53.356;-1.458;2022-09-09T21:23:44;100048.16;;;14.40;100.00
63035;BME280;59750;53.356;-1.458;2022-09-09T21:26:10;100060.00;;;14.36;100.00
63035;BME280;59750;53.356;-1.458;2022-09-09T21:28:36;100064.19;;;14.39;100.00
63035;BME280;59750;53.356;-1.458;2022-09-09T21:31:04;100061.00;;;14.35;100.00
63035;BME280;59750;53.356;-1.458;2022-09-09T21:33:31;100066.97;;;14.37;100.00
63035;BME280;59750;53.356;-1.458;2022-09-09T21:36:04;100066.00;;;14.38;100.00
63035;BME280;59750;53.356;-1.458;2022-09-09T21:38:31;100065.31;;;14.36;100.00
63035;BME280;59750;53.356;-1.458;2022-09-09T21:41:02;100060.16;;;14.35;100.00
63035;BME280;59750;53.356;-1.458;2022-09-09T21:43:30;100068.09;;;14.35;100.00
63035;BME280;59750;53.356;-1.458;2022-09-09T21:45:56;100069.75;;;14.36;100.00
63035;BME280;59750;53.356;-1.458;2022-09-09T21:48:23;100074.50;;;14.32;100.00
63035;BME280;59750;53.356;-1.458;2022-09-09T21:50:52;100074.22;;;14.35;100.00
63035;BME280;59750;53.356;-1.458;2022-09-09T21:53:19;100076.19;;;14.33;100.00
63035;BME280;59750;53.356;-1.458;2022-09-09T21:55:47;100073.13;;;14.28;100.00
63035;BME280;59750;53.356;-1.458;2022-09-09T21:58:14;100077.84;;;14.34;100.00
63035;BME280;59750;53.356;-1.458;2022-09-09T22:00:42;100083.81;;;14.36;100.00
63035;BME280;59750;53.356;-1.458;2022-09-09T22:03:12;100084.50;;;14.38;100.00
63035;BME280;59750;53.356;-1.458;2022-09-09T22:05:40;100087.31;;;14.37;100.00
63035;BME280;59750;53.356;-1.458;2022-09-09T22:08:09;100082.31;;;14.34;100.00
63035;BME280;59750;53.356;-1.458;2022-09-09T22:10:37;100083.44;;;14.31;100.00
63035;BME280;59750;53.356;-1.458;2022-09-09T22:13:05;100088.72;;;14.31;100.00
63035;BME280;59750;53.356;-1.458;2022-09-09T22:15:31;100096.22;;;14.36;100.00
63035;BME280;59750;53.356;-1.458;2022-09-09T22:18:00;100093.28;;;14.39;100.00
63035;BME280;59750;53.356;-1.458;2022-09-09T22:20:30;100092.59;;;14.37;100.00
63035;BME280;59750;53.356;-1.458;2022-09-09T22:22:59;100095.25;;;14.37;100.00
63035;BME280;59750;53.356;-1.458;2022-09-09T22:25:27;100098.72;;;14.37;100.00
63035;BME280;59750;53.356;-1.458;2022-09-09T22:27:54;100094.94;;;14.40;100.00
63035;BME280;59750;53.356;-1.458;2022-09-09T22:30:21;100097.34;;;14.43;100.00
63035;BME280;59750;53.356;-1.458;2022-09-09T22:32:47;100104.56;;;14.41;100.00
63035;BME280;59750;53.356;-1.458;2022-09-09T22:35:13;100099.41;;;14.39;100.00
63035;BME280;59750;53.356;-1.458;2022-09-09T22:37:39;100104.84;;;14.38;100.00
63035;BME280;59750;53.356;-1.458;2022-09-09T22:40:06;100111.81;;;14.39;100.00
63035;BME280;59750;53.356;-1.458;2022-09-09T22:42:34;100115.44;;;14.38;100.00
63035;BME280;59750;53.356;-1.458;2022-09-09T22:45:00;100117.09;;;14.39;100.00
63035;BME280;59750;53.356;-1.458;2022-09-09T22:47:26;100121.28;;;14.41;100.00
63035;BME280;59750;53.356;-1.458;2022-09-09T22:49:52;100128.38;;;14.41;100.00
63035;BME280;59750;53.356;-1.458;2022-09-09T22:52:19;100118.91;;;14.38;100.00
63035;BME280;59750;53.356;-1.458;2022-09-09T22:54:47;100123.22;;;14.39;100.00
63035;BME280;59750;53.356;-1.458;2022-09-09T22:57:14;100126.56;;;14.41;100.00
63035;BME280;59750;53.356;-1.458;2022-09-09T22:59:40;100123.81;;;14.43;100.00
63035;BME280;59750;53.356;-1.458;2022-09-09T23:02:08;100129.50;;;14.38;100.00
63035;BME280;59750;53.356;-1.458;2022-09-09T23:04:35;100126.31;;;14.35;100.00
63035;BME280;59750;53.356;-1.458;2022-09-09T23:07:04;100134.09;;;14.36;100.00
63035;BME280;59750;53.356;-1.458;2022-09-09T23:09:33;100140.09;;;14.38;100.00
63035;BME280;59750;53.356;-1.458;2022-09-09T23:11:59;100134.09;;;14.36;100.00
63035;BME280;59750;53.356;-1.458;2022-09-09T23:14:26;100136.47;;;14.39;100.00
63035;BME280;59750;53.356;-1.458;2022-09-09T23:16:52;100142.44;;;14.41;100.00
63035;BME280;59750;53.356;-1.458;2022-09-09T23:19:18;100143.16;;;14.34;100.00
63035;BME280;59750;53.356;-1.458;2022-09-09T23:21:46;100144.97;;;14.33;100.00
63035;BME280;59750;53.356;-1.458;2022-09-09T23:24:14;100143.84;;;14.36;100.00
63035;BME280;59750;53.356;-1.458;2022-09-09T23:26:42;100142.47;;;14.32;100.00
63035;BME280;59750;53.356;-1.458;2022-09-09T23:29:11;100155.28;;;14.36;100.00
63035;BME280;59750;53.356;-1.458;2022-09-09T23:31:43;100152.09;;;14.33;100.00
63035;BME280;59750;53.356;-1.458;2022-09-09T23:34:12;100150.41;;;14.32;100.00
63035;BME280;59750;53.356;-1.458;2022-09-09T23:36:38;100154.19;;;14.29;100.00
63035;BME280;59750;53.356;-1.458;2022-09-09T23:39:07;100157.66;;;14.30;100.00
63035;BME280;59750;53.356;-1.458;2022-09-09T23:41:35;100156.81;;;14.29;100.00
63035;BME280;59750;53.356;-1.458;2022-09-09T23:44:02;100157.38;;;14.23;100.00
63035;BME280;59750;53.356;-1.458;2022-09-09T23:46:29;100151.38;;;14.21;100.00
63035;BME280;59750;53.356;-1.458;2022-09-09T23:48:56;100156.53;;;14.22;100.00
63035;BME280;59750;53.356;-1.458;2022-09-09T23:51:25;100156.53;;;14.22;100.00
63035;BME280;59750;53.356;-1.458;2022-09-09T23:53:55;100156.81;;;14.19;100.00
63035;BME280;59750;53.356;-1.458;2022-09-09T23:56:25;100152.22;;;14.21;100.00
63035;BME280;59750;53.356;-1.458;2022-09-09T23:58:52;100155.97;;;14.19;100.00
